sensor_id;sensor_type;location;lat;lon;timestamp;P1;durP1;ratioP1;P2;durP2;ratioP2
13255;SDS011;37913;48.370;10.930;2022-11-10T00:02:21;94.63;;;42.67;;
13255;SDS011;37913;48.370;10.930;2022-11-10T00:04:48;101.95;;;44.35;;
13255;SDS011;37913;48.370;10.930;2022-11-10T00:07:15;98.80;;;45.08;;
13255;SDS011;37913;48.370;10.930;2022-11-10T00:09:43;94.15;;;42.17;;
13255;SDS011;37913;48.370;10.930;2022-11-10T00:12:10;102.20;;;44.05;;
13255;SDS011;37913;48.370;10.930;2022-11-10T00:14:37;105.63;;;44.15;;
13255;SDS011;37913;48.370;10.930;2022-11-10T00:17:21;98.55;;;44.20;;
13255;SDS011;37913;48.370;10.930;2022-11-10T00:19:48;103.93;;;45.25;;
13255;SDS011;37913;48.370;10.930;2022-11-10T00:22:15;98.70;;;42.08;;
13255;SDS011;37913;48.370;10.930;2022-11-10T00:24:43;112.40;;;44.58;;
13255;SDS011;37913;48.370;10.930;2022-11-10T00:27:11;102.97;;;44.63;;
13255;SDS011;37913;48.370;10.930;2022-11-10T00:29:40;103.60;;;45.10;;
13255;SDS011;37913;48.370;10.930;2022-11-10T00:32:07;102.32;;;45.08;;
13255;SDS011;37913;48.370;10.930;2022-11-10T00:34:35;112.45;;;44.38;;
13255;SDS011;37913;48.370;10.930;2022-11-10T00:37:02;108.75;;;44.70;;
13255;SDS011;37913;48.370;10.930;2022-11-10T00:39:29;100.35;;;43.95;;
13255;SDS011;37913;48.370;10.930;2022-11-10T00:41:57;100.90;;;43.45;;
13255;SDS011;37913;48.370;10.930;2022-11-10T00:44:24;112.78;;;45.60;;
13255;SDS011;37913;48.370;10.930;2022-11-10T00:46:52;119.35;;;45.40;;
13255;SDS011;37913;48.370;10.930;2022-11-10T00:49:19;107.00;;;44.47;;
13255;SDS011;37913;48.370;10.930;2022-11-10T00:51:47;105.78;;;43.72;;
13255;SDS011;37913;48.370;10.930;2022-11-10T00:54:14;113.13;;;44.40;;
13255;SDS011;37913;48.370;10.930;2022-11-10T00:56:41;105.43;;;43.92;;
13255;SDS011;37913;48.370;10.930;2022-11-10T00:59:09;101.03;;;44.78;;
13255;SDS011;37913;48.370;10.930;2022-11-10T01:01:36;98.70;;;44.17;;
13255;SDS011;37913;48.370;10.930;2022-11-10T01:04:03;107.05;;;45.63;;
13255;SDS011;37913;48.370;10.930;2022-11-10T01:06:30;105.32;;;45.08;;
13255;SDS011;37913;48.370;10.930;2022-11-10T01:08:57;111.10;;;44.67;;
13255;SDS011;37913;48.370;10.930;2022-11-10T01:11:25;110.63;;;44.10;;
13255;SDS011;37913;48.370;10.930;2022-11-10T01:13:53;102.93;;;43.60;;
13255;SDS011;37913;48.370;10.930;2022-11-10T01:16:24;105.50;;;43.33;;
13255;SDS011;37913;48.370;10.930;2022-11-10T01:18:53;110.80;;;43.72;;
13255;SDS011;37913;48.370;10.930;2022-11-10T01:21:21;96.03;;;42.17;;
13255;SDS011;37913;48.370;10.930;2022-11-10T01:23:49;95.20;;;42.55;;
13255;SDS011;37913;48.370;10.930;2022-11-10T01:26:16;97.57;;;40.58;;
13255;SDS011;37913;48.370;10.930;2022-11-10T01:28:44;93.75;;;42.08;;
13255;SDS011;37913;48.370;10.930;2022-11-10T01:34:06;87.25;;;38.25;;
13255;SDS011;37913;48.370;10.930;2022-11-10T01:36:33;77.80;;;35.97;;
13255;SDS011;37913;48.370;10.930;2022-11-10T01:39:00;80.88;;;37.25;;
13255;SDS011;37913;48.370;10.930;2022-11-10T01:41:27;76.85;;;35.75;;
13255;SDS011;37913;48.370;10.930;2022-11-10T01:46:37;72.38;;;34.20;;
13255;SDS011;37913;48.370;10.930;2022-11-10T01:49:05;74.35;;;34.58;;
13255;SDS011;37913;48.370;10.930;2022-11-10T01:51:33;76.85;;;35.78;;
13255;SDS011;37913;48.370;10.930;2022-11-10T01:54:03;76.90;;;34.50;;
13255;SDS011;37913;48.370;10.930;2022-11-10T01:56:35;72.18;;;34.50;;
13255;SDS011;37913;48.370;10.930;2022-11-10T01:59:07;76.05;;;36.85;;
13255;SDS011;37913;48.370;10.930;2022-11-10T02:01:37;83.40;;;40.63;;
13255;SDS011;37913;48.370;10.930;2022-11-10T02:04:07;77.88;;;39.25;;
13255;SDS011;37913;48.370;10.930;2022-11-10T02:06:39;75.63;;;39.25;;
13255;SDS011;37913;48.370;10.930;2022-11-10T02:09:07;77.35;;;39.03;;
13255;SDS011;37913;48.370;10.930;2022-11-10T03:25:50;77.85;;;39.63;;
13255;SDS011;37913;48.370;10.930;2022-11-10T03:28:17;78.65;;;38.78;;
13255;SDS011;37913;48.370;10.930;2022-11-10T03:30:43;80.65;;;38.92;;
13255;SDS011;37913;48.370;10.930;2022-11-10T03:33:11;78.18;;;39.25;;
13255;SDS011;37913;48.370;10.930;2022-11-10T03:35:37;76.03;;;39.13;;
13255;SDS011;37913;48.370;10.930;2022-11-10T03:38:04;80.57;;;39.28;;
13255;SDS011;37913;48.370;10.930;2022-11-10T03:40:31;74.80;;;38.88;;
13255;SDS011;37913;48.370;10.930;2022-11-10T03:43:00;71.90;;;37.50;;
13255;SDS011;37913;48.370;10.930;2022-11-10T03:45:26;76.63;;;38.65;;
13255;SDS011;37913;48.370;10.930;2022-11-10T03:47:53;72.88;;;37.30;;
13255;SDS011;37913;48.370;10.930;2022-11-10T03:50:21;74.50;;;38.95;;
13255;SDS011;37913;48.370;10.930;2022-11-10T03:52:48;75.67;;;38.80;;
13255;SDS011;37913;48.370;10.930;2022-11-10T03:55:16;75.88;;;39.47;;
13255;SDS011;37913;48.370;10.930;2022-11-10T03:57:43;74.38;;;38.35;;
13255;SDS011;37913;48.370;10.930;2022-11-10T04:00:13;73.45;;;38.67;;
13255;SDS011;37913;48.370;10.930;2022-11-10T04:02:40;78.70;;;38.72;;
13255;SDS011;37913;48.370;10.930;2022-11-10T04:05:08;74.80;;;38.20;;
13255;SDS011;37913;48.370;10.930;2022-11-10T04:07:56;69.95;;;34.25;;
13255;SDS011;37913;48.370;10.930;2022-11-10T04:10:41;77.72;;;35.45;;
13255;SDS011;37913;48.370;10.930;2022-11-10T04:13:08;75.30;;;34.65;;
13255;SDS011;37913;48.370;10.930;2022-11-10T04:16:03;69.75;;;32.40;;
13255;SDS011;37913;48.370;10.930;2022-11-10T04:18:30;71.97;;;33.60;;
13255;SDS011;37913;48.370;10.930;2022-11-10T04:20:59;75.97;;;34.00;;
13255;SDS011;37913;48.370;10.930;2022-11-10T04:23:30;74.95;;;35.17;;
13255;SDS011;37913;48.370;10.930;2022-11-10T04:26:00;77.05;;;35.05;;
13255;SDS011;37913;48.370;10.930;2022-11-10T04:28:47;76.22;;;34.30;;
13255;SDS011;37913;48.370;10.930;2022-11-10T04:31:19;72.45;;;33.30;;
13255;SDS011;37913;48.370;10.930;2022-11-10T04:33:47;75.28;;;34.90;;
13255;SDS011;37913;48.370;10.930;2022-11-10T04:36:16;75.50;;;34.83;;
13255;SDS011;37913;48.370;10.930;2022-11-10T04:38:43;75.80;;;34.42;;
13255;SDS011;37913;48.370;10.930;2022-11-10T04:41:11;74.45;;;34.50;;
13255;SDS011;37913;48.370;10.930;2022-11-10T04:43:38;71.68;;;33.45;;
13255;SDS011;37913;48.370;10.930;2022-11-10T04:46:06;78.88;;;35.25;;
13255;SDS011;37913;48.370;10.930;2022-11-10T04:48:41;77.85;;;35.65;;
13255;SDS011;37913;48.370;10.930;2022-11-10T04:51:11;74.10;;;34.55;;
13255;SDS011;37913;48.370;10.930;2022-11-10T04:53:38;78.07;;;35.53;;
13255;SDS011;37913;48.370;10.930;2022-11-10T04:56:05;70.63;;;33.92;;
13255;SDS011;37913;48.370;10.930;2022-11-10T04:58:32;77.28;;;34.67;;
13255;SDS011;37913;48.370;10.930;2022-11-10T05:00:59;81.32;;;37.20;;
13255;SDS011;37913;48.370;10.930;2022-11-10T05:06:37;81.93;;;36.60;;
13255;SDS011;37913;48.370;10.930;2022-11-10T05:09:04;71.95;;;34.10;;
13255;SDS011;37913;48.370;10.930;2022-11-10T05:11:31;77.95;;;36.03;;
13255;SDS011;37913;48.370;10.930;2022-11-10T05:13:58;79.10;;;36.08;;
13255;SDS011;37913;48.370;10.930;2022-11-10T05:16:27;76.57;;;35.05;;
13255;SDS011;37913;48.370;10.930;2022-11-10T05:19:18;75.85;;;35.50;;
13255;SDS011;37913;48.370;10.930;2022-11-10T05:21:47;76.78;;;35.80;;
13255;SDS011;37913;48.370;10.930;2022-11-10T05:24:15;77.35;;;35.83;;
13255;SDS011;37913;48.370;10.930;2022-11-10T05:26:44;84.13;;;36.57;;
13255;SDS011;37913;48.370;10.930;2022-11-10T05:29:14;77.80;;;35.95;;
13255;SDS011;37913;48.370;10.930;2022-11-10T05:37:56;79.80;;;35.78;;
13255;SDS011;37913;48.370;10.930;2022-11-10T05:41:08;81.75;;;35.88;;
13255;SDS011;37913;48.370;10.930;2022-11-10T05:43:35;76.90;;;35.45;;
13255;SDS011;37913;48.370;10.930;2022-11-10T05:49:43;84.47;;;36.22;;
13255;SDS011;37913;48.370;10.930;2022-11-10T06:18:40;94.00;;;48.28;;
13255;SDS011;37913;48.370;10.930;2022-11-10T06:23:52;79.55;;;36.85;;
13255;SDS011;37913;48.370;10.930;2022-11-10T06:26:24;76.50;;;36.75;;
13255;SDS011;37913;48.370;10.930;2022-11-10T06:29:27;85.28;;;37.30;;
13255;SDS011;37913;48.370;10.930;2022-11-10T06:34:54;83.55;;;38.83;;
13255;SDS011;37913;48.370;10.930;2022-11-10T06:37:21;82.18;;;37.40;;
13255;SDS011;37913;48.370;10.930;2022-11-10T06:39:51;78.20;;;37.15;;
13255;SDS011;37913;48.370;10.930;2022-11-10T06:42:18;81.80;;;37.40;;
13255;SDS011;37913;48.370;10.930;2022-11-10T06:44:45;82.27;;;38.93;;
13255;SDS011;37913;48.370;10.930;2022-11-10T06:47:12;80.53;;;37.83;;
13255;SDS011;37913;48.370;10.930;2022-11-10T06:50:00;81.28;;;37.58;;
13255;SDS011;37913;48.370;10.930;2022-11-10T06:54:59;80.60;;;37.92;;
13255;SDS011;37913;48.370;10.930;2022-11-10T06:57:26;85.47;;;37.60;;
13255;SDS011;37913;48.370;10.930;2022-11-10T06:59:53;87.10;;;38.40;;
13255;SDS011;37913;48.370;10.930;2022-11-10T07:02:20;85.80;;;38.20;;
13255;SDS011;37913;48.370;10.930;2022-11-10T07:04:47;84.55;;;40.53;;
13255;SDS011;37913;48.370;10.930;2022-11-10T07:07:16;81.45;;;38.25;;
13255;SDS011;37913;48.370;10.930;2022-11-10T07:09:43;89.63;;;40.35;;
13255;SDS011;37913;48.370;10.930;2022-11-10T07:12:10;84.65;;;38.97;;
13255;SDS011;37913;48.370;10.930;2022-11-10T07:14:37;82.60;;;38.92;;
13255;SDS011;37913;48.370;10.930;2022-11-10T07:17:04;87.53;;;39.85;;
13255;SDS011;37913;48.370;10.930;2022-11-10T07:19:34;84.20;;;40.58;;
13255;SDS011;37913;48.370;10.930;2022-11-10T07:22:00;91.28;;;39.47;;
13255;SDS011;37913;48.370;10.930;2022-11-10T07:24:34;84.85;;;39.58;;
13255;SDS011;37913;48.370;10.930;2022-11-10T07:27:01;88.28;;;39.55;;
13255;SDS011;37913;48.370;10.930;2022-11-10T07:29:28;84.95;;;40.05;;
13255;SDS011;37913;48.370;10.930;2022-11-10T07:31:55;96.18;;;41.30;;
13255;SDS011;37913;48.370;10.930;2022-11-10T07:34:22;90.85;;;40.20;;
13255;SDS011;37913;48.370;10.930;2022-11-10T07:36:48;86.40;;;38.88;;
13255;SDS011;37913;48.370;10.930;2022-11-10T07:39:15;89.57;;;40.70;;
13255;SDS011;37913;48.370;10.930;2022-11-10T07:41:45;86.53;;;40.53;;
13255;SDS011;37913;48.370;10.930;2022-11-10T07:44:13;90.53;;;41.40;;
13255;SDS011;37913;48.370;10.930;2022-11-10T07:53:10;97.15;;;43.90;;
13255;SDS011;37913;48.370;10.930;2022-11-10T07:55:44;88.32;;;43.25;;
13255;SDS011;37913;48.370;10.930;2022-11-10T07:58:21;85.20;;;40.10;;
13255;SDS011;37913;48.370;10.930;2022-11-10T08:01:11;86.55;;;40.13;;
13255;SDS011;37913;48.370;10.930;2022-11-10T08:03:43;86.85;;;40.67;;
13255;SDS011;37913;48.370;10.930;2022-11-10T08:06:11;82.75;;;40.58;;
13255;SDS011;37913;48.370;10.930;2022-11-10T08:08:38;81.97;;;39.67;;
13255;SDS011;37913;48.370;10.930;2022-11-10T08:11:13;79.25;;;39.55;;
13255;SDS011;37913;48.370;10.930;2022-11-10T08:13:51;86.63;;;40.15;;
13255;SDS011;37913;48.370;10.930;2022-11-10T08:16:18;89.00;;;41.78;;
13255;SDS011;37913;48.370;10.930;2022-11-10T08:18:45;85.95;;;42.40;;
13255;SDS011;37913;48.370;10.930;2022-11-10T08:21:15;83.03;;;41.25;;
13255;SDS011;37913;48.370;10.930;2022-11-10T08:24:05;84.85;;;42.92;;
13255;SDS011;37913;48.370;10.930;2022-11-10T08:27:46;86.82;;;43.33;;
13255;SDS011;37913;48.370;10.930;2022-11-10T08:41:12;75.18;;;37.90;;
13255;SDS011;37913;48.370;10.930;2022-11-10T08:57:18;83.13;;;40.72;;
13255;SDS011;37913;48.370;10.930;2022-11-10T09:02:37;77.38;;;37.60;;
13255;SDS011;37913;48.370;10.930;2022-11-10T09:05:04;77.63;;;36.25;;
13255;SDS011;37913;48.370;10.930;2022-11-10T09:07:33;81.88;;;38.45;;
13255;SDS011;37913;48.370;10.930;2022-11-10T09:13:31;77.30;;;36.42;;
13255;SDS011;37913;48.370;10.930;2022-11-10T09:16:01;76.43;;;35.55;;
13255;SDS011;37913;48.370;10.930;2022-11-10T09:21:31;81.70;;;37.90;;
13255;SDS011;37913;48.370;10.930;2022-11-10T09:30:22;83.05;;;39.33;;
13255;SDS011;37913;48.370;10.930;2022-11-10T09:32:52;78.55;;;38.85;;
13255;SDS011;37913;48.370;10.930;2022-11-10T09:35:23;81.68;;;40.47;;
13255;SDS011;37913;48.370;10.930;2022-11-10T09:37:53;82.70;;;40.30;;
13255;SDS011;37913;48.370;10.930;2022-11-10T09:40:21;80.60;;;40.67;;
13255;SDS011;37913;48.370;10.930;2022-11-10T09:43:20;83.75;;;41.80;;
13255;SDS011;37913;48.370;10.930;2022-11-10T09:48:48;81.75;;;40.90;;
13255;SDS011;37913;48.370;10.930;2022-11-10T09:51:26;81.38;;;41.05;;
13255;SDS011;37913;48.370;10.930;2022-11-10T09:54:20;83.38;;;41.72;;
13255;SDS011;37913;48.370;10.930;2022-11-10T09:56:59;82.90;;;41.20;;
13255;SDS011;37913;48.370;10.930;2022-11-10T09:59:38;81.05;;;41.42;;
13255;SDS011;37913;48.370;10.930;2022-11-10T10:02:18;76.53;;;39.47;;
13255;SDS011;37913;48.370;10.930;2022-11-10T10:05:00;84.07;;;41.67;;
13255;SDS011;37913;48.370;10.930;2022-11-10T10:07:55;82.40;;;43.85;;
13255;SDS011;37913;48.370;10.930;2022-11-10T10:10:31;78.25;;;42.38;;
13255;SDS011;37913;48.370;10.930;2022-11-10T10:13:13;84.45;;;43.33;;
13255;SDS011;37913;48.370;10.930;2022-11-10T10:15:52;84.60;;;46.22;;
13255;SDS011;37913;48.370;10.930;2022-11-10T10:18:39;86.68;;;48.78;;
13255;SDS011;37913;48.370;10.930;2022-11-10T10:21:24;86.57;;;47.13;;
13255;SDS011;37913;48.370;10.930;2022-11-10T10:24:04;86.15;;;46.55;;
13255;SDS011;37913;48.370;10.930;2022-11-10T10:26:37;80.45;;;41.58;;
13255;SDS011;37913;48.370;10.930;2022-11-10T10:29:07;80.80;;;40.83;;
13255;SDS011;37913;48.370;10.930;2022-11-10T10:31:45;83.90;;;43.78;;
13255;SDS011;37913;48.370;10.930;2022-11-10T10:34:15;84.78;;;43.58;;
13255;SDS011;37913;48.370;10.930;2022-11-10T10:36:43;81.75;;;43.50;;
13255;SDS011;37913;48.370;10.930;2022-11-10T10:39:12;80.30;;;42.70;;
13255;SDS011;37913;48.370;10.930;2022-11-10T10:41:43;82.85;;;44.42;;
13255;SDS011;37913;48.370;10.930;2022-11-10T10:44:11;85.07;;;45.17;;
13255;SDS011;37913;48.370;10.930;2022-11-10T10:46:44;88.18;;;47.97;;
13255;SDS011;37913;48.370;10.930;2022-11-10T10:49:17;86.78;;;49.83;;
13255;SDS011;37913;48.370;10.930;2022-11-10T10:51:46;86.30;;;50.10;;
13255;SDS011;37913;48.370;10.930;2022-11-10T10:54:24;86.03;;;50.78;;
13255;SDS011;37913;48.370;10.930;2022-11-10T10:56:59;88.78;;;52.63;;
13255;SDS011;37913;48.370;10.930;2022-11-10T10:59:27;83.55;;;51.20;;
13255;SDS011;37913;48.370;10.930;2022-11-10T11:05:10;83.93;;;49.53;;
13255;SDS011;37913;48.370;10.930;2022-11-10T11:07:52;84.40;;;49.05;;
13255;SDS011;37913;48.370;10.930;2022-11-10T11:10:36;85.55;;;48.85;;
13255;SDS011;37913;48.370;10.930;2022-11-10T11:13:12;82.63;;;47.45;;
13255;SDS011;37913;48.370;10.930;2022-11-10T11:15:40;84.32;;;47.20;;
13255;SDS011;37913;48.370;10.930;2022-11-10T11:18:10;87.45;;;47.90;;
13255;SDS011;37913;48.370;10.930;2022-11-10T11:20:42;83.00;;;45.90;;
13255;SDS011;37913;48.370;10.930;2022-11-10T11:23:28;78.40;;;42.58;;
13255;SDS011;37913;48.370;10.930;2022-11-10T11:26:04;82.30;;;42.72;;
13255;SDS011;37913;48.370;10.930;2022-11-10T11:28:39;80.22;;;41.00;;
13255;SDS011;37913;48.370;10.930;2022-11-10T11:31:18;81.22;;;40.65;;
13255;SDS011;37913;48.370;10.930;2022-11-10T11:33:54;85.40;;;41.13;;
13255;SDS011;37913;48.370;10.930;2022-11-10T11:36:32;84.43;;;40.88;;
13255;SDS011;37913;48.370;10.930;2022-11-10T11:39:06;81.80;;;39.65;;
13255;SDS011;37913;48.370;10.930;2022-11-10T11:41:48;86.03;;;40.72;;
13255;SDS011;37913;48.370;10.930;2022-11-10T11:44:30;82.22;;;40.67;;
13255;SDS011;37913;48.370;10.930;2022-11-10T11:47:11;77.85;;;38.80;;
13255;SDS011;37913;48.370;10.930;2022-11-10T11:49:55;80.35;;;39.85;;
13255;SDS011;37913;48.370;10.930;2022-11-10T11:52:36;81.00;;;40.13;;
13255;SDS011;37913;48.370;10.930;2022-11-10T11:55:14;77.85;;;38.72;;
13255;SDS011;37913;48.370;10.930;2022-11-10T11:57:56;80.65;;;39.33;;
13255;SDS011;37913;48.370;10.930;2022-11-10T12:00:41;81.72;;;40.20;;
13255;SDS011;37913;48.370;10.930;2022-11-10T12:06:20;81.90;;;42.05;;
13255;SDS011;37913;48.370;10.930;2022-11-10T12:09:04;82.93;;;43.75;;
13255;SDS011;37913;48.370;10.930;2022-11-10T12:11:43;81.78;;;43.40;;
13255;SDS011;37913;48.370;10.930;2022-11-10T12:14:25;81.25;;;45.13;;
13255;SDS011;37913;48.370;10.930;2022-11-10T12:16:59;85.30;;;48.00;;
13255;SDS011;37913;48.370;10.930;2022-11-10T12:19:37;85.60;;;48.78;;
13255;SDS011;37913;48.370;10.930;2022-11-10T12:22:17;87.13;;;50.10;;
13255;SDS011;37913;48.370;10.930;2022-11-10T12:25:01;91.70;;;53.67;;
13255;SDS011;37913;48.370;10.930;2022-11-10T12:27:41;86.00;;;52.83;;
13255;SDS011;37913;48.370;10.930;2022-11-10T12:30:13;92.20;;;58.33;;
13255;SDS011;37913;48.370;10.930;2022-11-10T12:32:42;89.88;;;60.08;;
13255;SDS011;37913;48.370;10.930;2022-11-10T12:35:13;94.45;;;65.43;;
13255;SDS011;37913;48.370;10.930;2022-11-10T12:37:45;95.85;;;71.03;;
13255;SDS011;37913;48.370;10.930;2022-11-10T12:40:18;94.68;;;72.68;;
13255;SDS011;37913;48.370;10.930;2022-11-10T12:42:50;93.82;;;75.55;;
13255;SDS011;37913;48.370;10.930;2022-11-10T12:45:25;93.32;;;77.28;;
13255;SDS011;37913;48.370;10.930;2022-11-10T12:47:56;92.95;;;72.72;;
13255;SDS011;37913;48.370;10.930;2022-11-10T12:50:26;92.30;;;70.43;;
13255;SDS011;37913;48.370;10.930;2022-11-10T12:53:12;90.15;;;62.15;;
13255;SDS011;37913;48.370;10.930;2022-11-10T12:55:49;89.70;;;59.92;;
13255;SDS011;37913;48.370;10.930;2022-11-10T12:58:21;83.57;;;53.55;;
13255;SDS011;37913;48.370;10.930;2022-11-10T13:00:57;85.75;;;54.17;;
13255;SDS011;37913;48.370;10.930;2022-11-10T13:03:28;84.60;;;49.92;;
13255;SDS011;37913;48.370;10.930;2022-11-10T13:05:56;87.40;;;50.75;;
13255;SDS011;37913;48.370;10.930;2022-11-10T13:08:33;88.35;;;54.28;;
13255;SDS011;37913;48.370;10.930;2022-11-10T13:11:06;91.50;;;56.05;;
13255;SDS011;37913;48.370;10.930;2022-11-10T13:13:50;83.55;;;54.65;;
13255;SDS011;37913;48.370;10.930;2022-11-10T13:22:29;90.32;;;60.55;;
13255;SDS011;37913;48.370;10.930;2022-11-10T13:28:06;93.40;;;63.72;;
13255;SDS011;37913;48.370;10.930;2022-11-10T13:30:38;94.45;;;63.22;;
13255;SDS011;37913;48.370;10.930;2022-11-10T13:36:01;85.38;;;58.50;;
13255;SDS011;37913;48.370;10.930;2022-11-10T13:38:32;87.38;;;59.85;;
13255;SDS011;37913;48.370;10.930;2022-11-10T13:41:20;92.63;;;60.95;;
13255;SDS011;37913;48.370;10.930;2022-11-10T13:43:52;92.22;;;61.08;;
13255;SDS011;37913;48.370;10.930;2022-11-10T13:46:20;91.03;;;62.05;;
13255;SDS011;37913;48.370;10.930;2022-11-10T13:52:00;89.22;;;59.75;;
13255;SDS011;37913;48.370;10.930;2022-11-10T13:54:44;93.80;;;59.72;;
13255;SDS011;37913;48.370;10.930;2022-11-10T13:57:24;88.93;;;57.88;;
13255;SDS011;37913;48.370;10.930;2022-11-10T13:59:56;89.35;;;57.83;;
13255;SDS011;37913;48.370;10.930;2022-11-10T14:02:47;93.00;;;60.35;;
13255;SDS011;37913;48.370;10.930;2022-11-10T14:08:28;87.60;;;54.85;;
13255;SDS011;37913;48.370;10.930;2022-11-10T14:11:14;85.60;;;53.42;;
13255;SDS011;37913;48.370;10.930;2022-11-10T14:13:53;87.60;;;52.90;;
13255;SDS011;37913;48.370;10.930;2022-11-10T14:16:26;86.85;;;50.58;;
13255;SDS011;37913;48.370;10.930;2022-11-10T14:19:00;88.10;;;50.30;;
13255;SDS011;37913;48.370;10.930;2022-11-10T14:21:32;86.35;;;48.22;;
13255;SDS011;37913;48.370;10.930;2022-11-10T14:24:06;93.85;;;50.33;;
13255;SDS011;37913;48.370;10.930;2022-11-10T14:26:41;86.68;;;49.53;;
13255;SDS011;37913;48.370;10.930;2022-11-10T14:29:18;87.72;;;49.60;;
13255;SDS011;37913;48.370;10.930;2022-11-10T14:31:58;86.35;;;49.80;;
13255;SDS011;37913;48.370;10.930;2022-11-10T14:34:27;89.03;;;50.42;;
13255;SDS011;37913;48.370;10.930;2022-11-10T14:36:56;87.07;;;50.10;;
13255;SDS011;37913;48.370;10.930;2022-11-10T14:39:26;88.05;;;49.63;;
13255;SDS011;37913;48.370;10.930;2022-11-10T14:41:57;83.53;;;48.10;;
13255;SDS011;37913;48.370;10.930;2022-11-10T14:44:27;87.63;;;49.10;;
13255;SDS011;37913;48.370;10.930;2022-11-10T14:46:55;87.07;;;47.67;;
13255;SDS011;37913;48.370;10.930;2022-11-10T14:49:37;86.90;;;46.65;;
13255;SDS011;37913;48.370;10.930;2022-11-10T14:52:04;85.78;;;45.65;;
13255;SDS011;37913;48.370;10.930;2022-11-10T14:54:32;91.20;;;47.35;;
13255;SDS011;37913;48.370;10.930;2022-11-10T14:57:02;82.40;;;44.20;;
13255;SDS011;37913;48.370;10.930;2022-11-10T14:59:31;86.57;;;45.03;;
13255;SDS011;37913;48.370;10.930;2022-11-10T15:01:59;88.47;;;44.70;;
13255;SDS011;37913;48.370;10.930;2022-11-10T15:04:28;92.75;;;46.42;;
13255;SDS011;37913;48.370;10.930;2022-11-10T15:06:56;84.63;;;43.58;;
13255;SDS011;37913;48.370;10.930;2022-11-10T15:09:26;85.70;;;43.40;;
13255;SDS011;37913;48.370;10.930;2022-11-10T15:12:04;86.93;;;43.35;;
13255;SDS011;37913;48.370;10.930;2022-11-10T15:14:44;88.30;;;43.45;;
13255;SDS011;37913;48.370;10.930;2022-11-10T15:17:14;88.55;;;42.42;;
13255;SDS011;37913;48.370;10.930;2022-11-10T15:19:52;88.38;;;42.10;;
13255;SDS011;37913;48.370;10.930;2022-11-10T15:22:21;85.25;;;41.40;;
13255;SDS011;37913;48.370;10.930;2022-11-10T15:24:54;95.50;;;43.05;;
13255;SDS011;37913;48.370;10.930;2022-11-10T15:27:24;88.40;;;40.83;;
13255;SDS011;37913;48.370;10.930;2022-11-10T15:29:53;87.70;;;41.25;;
13255;SDS011;37913;48.370;10.930;2022-11-10T15:32:25;80.25;;;39.50;;
13255;SDS011;37913;48.370;10.930;2022-11-10T15:35:05;87.95;;;40.35;;
13255;SDS011;37913;48.370;10.930;2022-11-10T15:37:34;88.00;;;39.92;;
13255;SDS011;37913;48.370;10.930;2022-11-10T15:43:10;83.88;;;39.40;;
13255;SDS011;37913;48.370;10.930;2022-11-10T15:45:39;88.57;;;41.05;;
13255;SDS011;37913;48.370;10.930;2022-11-10T15:48:10;77.80;;;37.80;;
13255;SDS011;37913;48.370;10.930;2022-11-10T15:50:39;94.32;;;42.25;;
13255;SDS011;37913;48.370;10.930;2022-11-10T15:53:10;86.85;;;39.53;;
13255;SDS011;37913;48.370;10.930;2022-11-10T15:55:39;81.97;;;38.70;;
13255;SDS011;37913;48.370;10.930;2022-11-10T15:58:13;82.28;;;38.60;;
13255;SDS011;37913;48.370;10.930;2022-11-10T16:00:51;83.38;;;38.35;;
13255;SDS011;37913;48.370;10.930;2022-11-10T16:03:20;84.07;;;38.40;;
13255;SDS011;37913;48.370;10.930;2022-11-10T16:05:48;76.78;;;36.92;;
13255;SDS011;37913;48.370;10.930;2022-11-10T16:08:18;82.85;;;37.85;;
13255;SDS011;37913;48.370;10.930;2022-11-10T16:10:47;84.97;;;39.47;;
13255;SDS011;37913;48.370;10.930;2022-11-10T16:13:16;82.90;;;38.20;;
13255;SDS011;37913;48.370;10.930;2022-11-10T16:15:47;79.18;;;37.10;;
13255;SDS011;37913;48.370;10.930;2022-11-10T16:18:14;78.28;;;36.63;;
13255;SDS011;37913;48.370;10.930;2022-11-10T16:20:45;85.57;;;38.13;;
13255;SDS011;37913;48.370;10.930;2022-11-10T16:23:12;80.93;;;37.72;;
13255;SDS011;37913;48.370;10.930;2022-11-10T16:25:39;75.85;;;36.30;;
13255;SDS011;37913;48.370;10.930;2022-11-10T16:28:09;79.03;;;37.47;;
13255;SDS011;37913;48.370;10.930;2022-11-10T16:30:37;85.70;;;40.42;;
13255;SDS011;37913;48.370;10.930;2022-11-10T16:33:04;86.88;;;38.17;;
13255;SDS011;37913;48.370;10.930;2022-11-10T16:35:30;82.60;;;39.25;;
13255;SDS011;37913;48.370;10.930;2022-11-10T16:37:59;85.45;;;38.95;;
13255;SDS011;37913;48.370;10.930;2022-11-10T16:40:26;80.30;;;38.17;;
13255;SDS011;37913;48.370;10.930;2022-11-10T16:42:53;76.75;;;36.85;;
13255;SDS011;37913;48.370;10.930;2022-11-10T16:45:23;88.22;;;39.95;;
13255;SDS011;37913;48.370;10.930;2022-11-10T16:47:54;77.05;;;36.88;;
13255;SDS011;37913;48.370;10.930;2022-11-10T16:50:26;77.40;;;38.13;;
13255;SDS011;37913;48.370;10.930;2022-11-10T16:53:00;81.03;;;37.22;;
13255;SDS011;37913;48.370;10.930;2022-11-10T16:55:28;79.57;;;38.65;;
13255;SDS011;37913;48.370;10.930;2022-11-10T16:57:55;76.05;;;36.40;;
13255;SDS011;37913;48.370;10.930;2022-11-10T17:00:23;84.45;;;39.22;;
13255;SDS011;37913;48.370;10.930;2022-11-10T17:02:53;80.20;;;37.95;;
13255;SDS011;37913;48.370;10.930;2022-11-10T17:05:25;94.82;;;42.40;;
13255;SDS011;37913;48.370;10.930;2022-11-10T17:08:14;82.65;;;38.35;;
13255;SDS011;37913;48.370;10.930;2022-11-10T17:10:47;79.82;;;36.97;;
13255;SDS011;37913;48.370;10.930;2022-11-10T17:13:14;84.10;;;39.53;;
13255;SDS011;37913;48.370;10.930;2022-11-10T17:15:42;81.38;;;38.35;;
13255;SDS011;37913;48.370;10.930;2022-11-10T17:18:09;77.65;;;37.05;;
13255;SDS011;37913;48.370;10.930;2022-11-10T17:20:40;79.47;;;39.97;;
13255;SDS011;37913;48.370;10.930;2022-11-10T17:23:11;82.82;;;37.78;;
13255;SDS011;37913;48.370;10.930;2022-11-10T17:25:42;86.63;;;39.70;;
13255;SDS011;37913;48.370;10.930;2022-11-10T17:28:10;81.90;;;38.25;;
13255;SDS011;37913;48.370;10.930;2022-11-10T17:30:38;88.60;;;40.80;;
13255;SDS011;37913;48.370;10.930;2022-11-10T17:33:05;93.68;;;46.13;;
13255;SDS011;37913;48.370;10.930;2022-11-10T17:35:41;99.60;;;48.38;;
13255;SDS011;37913;48.370;10.930;2022-11-10T17:38:15;94.40;;;44.50;;
13255;SDS011;37913;48.370;10.930;2022-11-10T17:40:51;91.05;;;46.10;;
13255;SDS011;37913;48.370;10.930;2022-11-10T17:43:21;96.85;;;46.00;;
13255;SDS011;37913;48.370;10.930;2022-11-10T17:45:49;94.53;;;44.75;;
13255;SDS011;37913;48.370;10.930;2022-11-10T17:48:16;94.65;;;44.97;;
13255;SDS011;37913;48.370;10.930;2022-11-10T17:50:44;95.85;;;44.17;;
13255;SDS011;37913;48.370;10.930;2022-11-10T17:53:13;94.03;;;43.25;;
13255;SDS011;37913;48.370;10.930;2022-11-10T17:55:44;85.78;;;41.28;;
13255;SDS011;37913;48.370;10.930;2022-11-10T17:58:13;91.28;;;42.03;;
13255;SDS011;37913;48.370;10.930;2022-11-10T18:00:40;91.90;;;45.83;;
13255;SDS011;37913;48.370;10.930;2022-11-10T18:03:09;90.00;;;45.92;;